sensor_id;sensor_type;location;lat;lon;timestamp;P1;durP1;ratioP1;P2;durP2;ratioP2
7495;SDS011;3789;47.064;15.482;2023-05-27T00:00:48;7.55;;;6.85;;
7495;SDS011;3789;47.064;15.482;2023-05-27T00:03:21;7.45;;;6.75;;
7495;SDS011;3789;47.064;15.482;2023-05-27T00:08:46;7.25;;;6.65;;
7495;SDS011;3789;47.064;15.482;2023-05-27T00:11:28;7.95;;;7.25;;
7495;SDS011;3789;47.064;15.482;2023-05-27T00:13:59;6.90;;;6.30;;
7495;SDS011;3789;47.064;15.482;2023-05-27T00:16:36;7.80;;;7.00;;
7495;SDS011;3789;47.064;15.482;2023-05-27T00:19:15;8.07;;;7.30;;
7495;SDS011;3789;47.064;15.482;2023-05-27T00:21:45;7.30;;;6.65;;
7495;SDS011;3789;47.064;15.482;2023-05-27T00:24:14;7.38;;;6.65;;
7495;SDS011;3789;47.064;15.482;2023-05-27T00:26:43;7.88;;;7.18;;
7495;SDS011;3789;47.064;15.482;2023-05-27T00:29:25;7.72;;;7.03;;
7495;SDS011;3789;47.064;15.482;2023-05-27T00:31:53;8.18;;;7.22;;
7495;SDS011;3789;47.064;15.482;2023-05-27T00:34:24;7.95;;;7.25;;
7495;SDS011;3789;47.064;15.482;2023-05-27T00:36:57;7.70;;;7.10;;
7495;SDS011;3789;47.064;15.482;2023-05-27T00:39:35;8.10;;;7.35;;
7495;SDS011;3789;47.064;15.482;2023-05-27T00:42:04;8.25;;;7.53;;
7495;SDS011;3789;47.064;15.482;2023-05-27T00:44:37;8.20;;;7.40;;
7495;SDS011;3789;47.064;15.482;2023-05-27T00:47:09;7.90;;;7.10;;
7495;SDS011;3789;47.064;15.482;2023-05-27T00:49:40;8.52;;;7.70;;
7495;SDS011;3789;47.064;15.482;2023-05-27T00:52:12;8.52;;;7.72;;
7495;SDS011;3789;47.064;15.482;2023-05-27T00:54:41;8.25;;;7.45;;
7495;SDS011;3789;47.064;15.482;2023-05-27T00:57:09;8.07;;;7.38;;
7495;SDS011;3789;47.064;15.482;2023-05-27T00:59:39;9.07;;;7.75;;
7495;SDS011;3789;47.064;15.482;2023-05-27T01:02:18;7.75;;;6.95;;
7495;SDS011;3789;47.064;15.482;2023-05-27T01:04:48;8.32;;;7.45;;
7495;SDS011;3789;47.064;15.482;2023-05-27T01:10:48;8.60;;;7.03;;
7495;SDS011;3789;47.064;15.482;2023-05-27T01:13:38;8.40;;;7.60;;
7495;SDS011;3789;47.064;15.482;2023-05-27T01:16:17;7.68;;;6.97;;
7495;SDS011;3789;47.064;15.482;2023-05-27T01:18:48;8.20;;;7.28;;
7495;SDS011;3789;47.064;15.482;2023-05-27T01:21:21;7.72;;;7.13;;
7495;SDS011;3789;47.064;15.482;2023-05-27T01:24:03;7.65;;;7.00;;
7495;SDS011;3789;47.064;15.482;2023-05-27T01:26:41;7.90;;;7.20;;
7495;SDS011;3789;47.064;15.482;2023-05-27T01:29:16;7.88;;;7.18;;
7495;SDS011;3789;47.064;15.482;2023-05-27T01:35:49;7.60;;;7.00;;
7495;SDS011;3789;47.064;15.482;2023-05-27T01:38:09;8.27;;;7.57;;
7495;SDS011;3789;47.064;15.482;2023-05-27T01:40:49;8.35;;;7.65;;
7495;SDS011;3789;47.064;15.482;2023-05-27T01:43:50;8.48;;;7.68;;
7495;SDS011;3789;47.064;15.482;2023-05-27T01:46:25;7.65;;;7.05;;
7495;SDS011;3789;47.064;15.482;2023-05-27T01:48:55;8.10;;;7.40;;
7495;SDS011;3789;47.064;15.482;2023-05-27T01:51:35;8.00;;;7.20;;
7495;SDS011;3789;47.064;15.482;2023-05-27T01:54:11;7.85;;;7.15;;
7495;SDS011;3789;47.064;15.482;2023-05-27T01:56:40;8.45;;;7.75;;
7495;SDS011;3789;47.064;15.482;2023-05-27T01:59:09;7.65;;;6.93;;
7495;SDS011;3789;47.064;15.482;2023-05-27T02:01:39;7.53;;;6.82;;
7495;SDS011;3789;47.064;15.482;2023-05-27T02:04:10;7.22;;;6.63;;
7495;SDS011;3789;47.064;15.482;2023-05-27T02:06:45;9.23;;;8.05;;
7495;SDS011;3789;47.064;15.482;2023-05-27T02:09:14;7.97;;;7.07;;
7495;SDS011;3789;47.064;15.482;2023-05-27T02:11:51;8.98;;;7.38;;
7495;SDS011;3789;47.064;15.482;2023-05-27T02:14:23;9.20;;;7.63;;
7495;SDS011;3789;47.064;15.482;2023-05-27T02:16:55;8.38;;;7.57;;
7495;SDS011;3789;47.064;15.482;2023-05-27T02:19:32;8.45;;;7.75;;
7495;SDS011;3789;47.064;15.482;2023-05-27T02:22:01;8.27;;;7.25;;
7495;SDS011;3789;47.064;15.482;2023-05-27T02:24:31;8.75;;;7.90;;
7495;SDS011;3789;47.064;15.482;2023-05-27T02:27:00;8.70;;;7.90;;
7495;SDS011;3789;47.064;15.482;2023-05-27T02:29:33;8.27;;;7.50;;
7495;SDS011;3789;47.064;15.482;2023-05-27T02:32:04;9.18;;;8.00;;
7495;SDS011;3789;47.064;15.482;2023-05-27T02:34:34;8.10;;;7.40;;
7495;SDS011;3789;47.064;15.482;2023-05-27T02:37:18;8.07;;;7.38;;
7495;SDS011;3789;47.064;15.482;2023-05-27T02:39:56;8.25;;;7.45;;
7495;SDS011;3789;47.064;15.482;2023-05-27T02:42:26;8.85;;;7.95;;
7495;SDS011;3789;47.064;15.482;2023-05-27T02:44:57;9.20;;;8.40;;
7495;SDS011;3789;47.064;15.482;2023-05-27T02:47:26;8.38;;;7.68;;
7495;SDS011;3789;47.064;15.482;2023-05-27T02:50:03;8.68;;;7.95;;
7495;SDS011;3789;47.064;15.482;2023-05-27T02:52:36;8.60;;;7.90;;
7495;SDS011;3789;47.064;15.482;2023-05-27T02:55:06;8.55;;;7.82;;
7495;SDS011;3789;47.064;15.482;2023-05-27T02:57:43;8.65;;;7.85;;
7495;SDS011;3789;47.064;15.482;2023-05-27T03:00:14;9.27;;;8.38;;
7495;SDS011;3789;47.064;15.482;2023-05-27T03:02:45;9.15;;;8.35;;
7495;SDS011;3789;47.064;15.482;2023-05-27T03:05:23;8.20;;;7.50;;
7495;SDS011;3789;47.064;15.482;2023-05-27T03:07:53;8.68;;;7.88;;
7495;SDS011;3789;47.064;15.482;2023-05-27T03:10:29;8.60;;;7.80;;
7495;SDS011;3789;47.064;15.482;2023-05-27T03:13:01;7.93;;;7.13;;
7495;SDS011;3789;47.064;15.482;2023-05-27T03:15:40;8.50;;;7.80;;
7495;SDS011;3789;47.064;15.482;2023-05-27T03:18:09;9.00;;;8.10;;
7495;SDS011;3789;47.064;15.482;2023-05-27T03:20:41;8.48;;;7.68;;
7495;SDS011;3789;47.064;15.482;2023-05-27T03:23:12;8.98;;;8.15;;
7495;SDS011;3789;47.064;15.482;2023-05-27T03:25:41;8.35;;;7.68;;
7495;SDS011;3789;47.064;15.482;2023-05-27T03:28:16;8.43;;;7.72;;
7495;SDS011;3789;47.064;15.482;2023-05-27T03:30:48;8.60;;;7.90;;
7495;SDS011;3789;47.064;15.482;2023-05-27T03:33:18;8.57;;;7.88;;
7495;SDS011;3789;47.064;15.482;2023-05-27T03:35:48;8.98;;;8.07;;
7495;SDS011;3789;47.064;15.482;2023-05-27T03:38:19;8.20;;;7.50;;
7495;SDS011;3789;47.064;15.482;2023-05-27T03:40:51;8.55;;;7.75;;
7495;SDS011;3789;47.064;15.482;2023-05-27T03:43:22;8.18;;;7.32;;
7495;SDS011;3789;47.064;15.482;2023-05-27T03:45:58;8.43;;;7.60;;
7495;SDS011;3789;47.064;15.482;2023-05-27T03:48:26;9.23;;;8.43;;
7495;SDS011;3789;47.064;15.482;2023-05-27T03:50:57;8.52;;;7.78;;
7495;SDS011;3789;47.064;15.482;2023-05-27T03:53:27;8.95;;;8.07;;
7495;SDS011;3789;47.064;15.482;2023-05-27T03:55:59;8.82;;;7.75;;
7495;SDS011;3789;47.064;15.482;2023-05-27T03:58:37;8.65;;;7.90;;
7495;SDS011;3789;47.064;15.482;2023-05-27T04:01:08;8.70;;;7.85;;
7495;SDS011;3789;47.064;15.482;2023-05-27T04:03:42;8.55;;;7.75;;
7495;SDS011;3789;47.064;15.482;2023-05-27T04:06:18;8.45;;;7.65;;
7495;SDS011;3789;47.064;15.482;2023-05-27T04:08:49;8.20;;;7.50;;
7495;SDS011;3789;47.064;15.482;2023-05-27T04:11:29;8.70;;;7.93;;
7495;SDS011;3789;47.064;15.482;2023-05-27T04:13:59;8.20;;;7.50;;
7495;SDS011;3789;47.064;15.482;2023-05-27T04:16:35;8.85;;;7.80;;
7495;SDS011;3789;47.064;15.482;2023-05-27T04:19:05;7.97;;;7.30;;
7495;SDS011;3789;47.064;15.482;2023-05-27T04:21:38;9.05;;;8.25;;
7495;SDS011;3789;47.064;15.482;2023-05-27T04:24:11;8.18;;;7.45;;
7495;SDS011;3789;47.064;15.482;2023-05-27T04:26:42;8.57;;;7.78;;
7495;SDS011;3789;47.064;15.482;2023-05-27T04:29:12;8.50;;;7.72;;
7495;SDS011;3789;47.064;15.482;2023-05-27T04:31:44;7.60;;;7.00;;
7495;SDS011;3789;47.064;15.482;2023-05-27T04:34:13;8.68;;;7.97;;
7495;SDS011;3789;47.064;15.482;2023-05-27T04:36:42;8.98;;;7.80;;
7495;SDS011;3789;47.064;15.482;2023-05-27T04:39:22;8.13;;;7.45;;
7495;SDS011;3789;47.064;15.482;2023-05-27T04:41:56;8.20;;;7.50;;
7495;SDS011;3789;47.064;15.482;2023-05-27T04:44:27;7.95;;;7.25;;
7495;SDS011;3789;47.064;15.482;2023-05-27T04:46:58;7.47;;;6.90;;
7495;SDS011;3789;47.064;15.482;2023-05-27T04:49:30;8.13;;;7.32;;
7495;SDS011;3789;47.064;15.482;2023-05-27T04:52:01;7.93;;;7.22;;
7495;SDS011;3789;47.064;15.482;2023-05-27T04:54:30;8.13;;;7.32;;
7495;SDS011;3789;47.064;15.482;2023-05-27T04:56:59;7.88;;;7.25;;
7495;SDS011;3789;47.064;15.482;2023-05-27T04:59:31;8.27;;;7.50;;
7495;SDS011;3789;47.064;15.482;2023-05-27T05:02:15;7.40;;;6.80;;
7495;SDS011;3789;47.064;15.482;2023-05-27T05:05:04;8.25;;;7.55;;
7495;SDS011;3789;47.064;15.482;2023-05-27T05:07:41;8.48;;;7.68;;
7495;SDS011;3789;47.064;15.482;2023-05-27T05:10:37;8.05;;;7.35;;
7495;SDS011;3789;47.064;15.482;2023-05-27T05:13:26;7.95;;;7.25;;
7495;SDS011;3789;47.064;15.482;2023-05-27T05:16:15;8.50;;;7.72;;
7495;SDS011;3789;47.064;15.482;2023-05-27T05:18:44;8.27;;;7.57;;
7495;SDS011;3789;47.064;15.482;2023-05-27T05:21:19;8.18;;;7.47;;
7495;SDS011;3789;47.064;15.482;2023-05-27T05:23:49;8.65;;;7.80;;
7495;SDS011;3789;47.064;15.482;2023-05-27T05:26:18;8.60;;;7.80;;
7495;SDS011;3789;47.064;15.482;2023-05-27T05:28:48;8.52;;;7.75;;
7495;SDS011;3789;47.064;15.482;2023-05-27T05:31:18;9.23;;;8.32;;
7495;SDS011;3789;47.064;15.482;2023-05-27T05:34:00;8.00;;;7.20;;
7495;SDS011;3789;47.064;15.482;2023-05-27T05:36:32;8.30;;;7.50;;
7495;SDS011;3789;47.064;15.482;2023-05-27T05:39:03;7.90;;;7.22;;
7495;SDS011;3789;47.064;15.482;2023-05-27T05:41:39;8.15;;;7.45;;
7495;SDS011;3789;47.064;15.482;2023-05-27T05:44:07;9.00;;;7.72;;
7495;SDS011;3789;47.064;15.482;2023-05-27T05:46:36;8.82;;;7.93;;
7495;SDS011;3789;47.064;15.482;2023-05-27T05:49:06;7.93;;;7.30;;
7495;SDS011;3789;47.064;15.482;2023-05-27T05:51:44;8.77;;;7.95;;
7495;SDS011;3789;47.064;15.482;2023-05-27T05:54:21;8.63;;;7.72;;
7495;SDS011;3789;47.064;15.482;2023-05-27T05:56:49;7.68;;;7.03;;
7495;SDS011;3789;47.064;15.482;2023-05-27T05:59:19;7.95;;;7.13;;
7495;SDS011;3789;47.064;15.482;2023-05-27T06:01:59;8.18;;;7.45;;
7495;SDS011;3789;47.064;15.482;2023-05-27T06:04:28;8.13;;;7.43;;
7495;SDS011;3789;47.064;15.482;2023-05-27T06:06:57;7.22;;;6.63;;
7495;SDS011;3789;47.064;15.482;2023-05-27T06:09:28;8.02;;;7.30;;
7495;SDS011;3789;47.064;15.482;2023-05-27T06:12:03;7.75;;;7.07;;
7495;SDS011;3789;47.064;15.482;2023-05-27T06:14:32;7.88;;;7.13;;
7495;SDS011;3789;47.064;15.482;2023-05-27T06:17:09;7.93;;;7.15;;
7495;SDS011;3789;47.064;15.482;2023-05-27T06:19:36;7.80;;;7.10;;
7495;SDS011;3789;47.064;15.482;2023-05-27T06:22:05;7.75;;;6.93;;
7495;SDS011;3789;47.064;15.482;2023-05-27T06:24:41;8.27;;;7.38;;
7495;SDS011;3789;47.064;15.482;2023-05-27T06:27:22;7.68;;;6.97;;
7495;SDS011;3789;47.064;15.482;2023-05-27T06:29:51;8.07;;;7.28;;
7495;SDS011;3789;47.064;15.482;2023-05-27T06:32:21;8.23;;;7.53;;
7495;SDS011;3789;47.064;15.482;2023-05-27T06:34:53;8.60;;;7.80;;
7495;SDS011;3789;47.064;15.482;2023-05-27T06:37:22;9.02;;;8.13;;
7495;SDS011;3789;47.064;15.482;2023-05-27T06:39:52;9.02;;;8.02;;
7495;SDS011;3789;47.064;15.482;2023-05-27T06:42:20;9.77;;;8.27;;
7495;SDS011;3789;47.064;15.482;2023-05-27T06:44:52;8.68;;;7.88;;
7495;SDS011;3789;47.064;15.482;2023-05-27T06:47:21;8.40;;;7.70;;
7495;SDS011;3789;47.064;15.482;2023-05-27T06:49:50;8.82;;;7.93;;
7495;SDS011;3789;47.064;15.482;2023-05-27T06:52:28;8.23;;;7.53;;
7495;SDS011;3789;47.064;15.482;2023-05-27T06:54:58;7.78;;;7.07;;
7495;SDS011;3789;47.064;15.482;2023-05-27T06:57:32;8.02;;;7.32;;
7495;SDS011;3789;47.064;15.482;2023-05-27T07:00:02;7.82;;;7.13;;
7495;SDS011;3789;47.064;15.482;2023-05-27T07:02:41;7.35;;;6.65;;
7495;SDS011;3789;47.064;15.482;2023-05-27T07:05:11;7.63;;;6.80;;
7495;SDS011;3789;47.064;15.482;2023-05-27T07:07:42;7.88;;;7.05;;
7495;SDS011;3789;47.064;15.482;2023-05-27T07:10:12;7.00;;;6.40;;
7495;SDS011;3789;47.064;15.482;2023-05-27T07:12:44;6.93;;;6.22;;
7495;SDS011;3789;47.064;15.482;2023-05-27T07:15:15;7.10;;;6.25;;
7495;SDS011;3789;47.064;15.482;2023-05-27T07:17:51;6.65;;;6.03;;
7495;SDS011;3789;47.064;15.482;2023-05-27T07:20:20;6.95;;;6.30;;
7495;SDS011;3789;47.064;15.482;2023-05-27T07:22:49;7.63;;;6.93;;
7495;SDS011;3789;47.064;15.482;2023-05-27T07:25:17;7.50;;;6.65;;
7495;SDS011;3789;47.064;15.482;2023-05-27T07:27:45;6.93;;;6.32;;
7495;SDS011;3789;47.064;15.482;2023-05-27T07:30:16;6.95;;;6.25;;
7495;SDS011;3789;47.064;15.482;2023-05-27T07:32:47;7.10;;;6.47;;
7495;SDS011;3789;47.064;15.482;2023-05-27T07:35:16;6.75;;;6.05;;
7495;SDS011;3789;47.064;15.482;2023-05-27T07:37:53;7.20;;;6.50;;
7495;SDS011;3789;47.064;15.482;2023-05-27T07:40:21;6.82;;;6.13;;
7495;SDS011;3789;47.064;15.482;2023-05-27T07:42:51;6.85;;;6.13;;
7495;SDS011;3789;47.064;15.482;2023-05-27T07:45:20;6.47;;;5.80;;
7495;SDS011;3789;47.064;15.482;2023-05-27T07:48:00;7.63;;;6.90;;
7495;SDS011;3789;47.064;15.482;2023-05-27T07:50:30;7.13;;;5.93;;
7495;SDS011;3789;47.064;15.482;2023-05-27T07:53:05;6.60;;;6.10;;
7495;SDS011;3789;47.064;15.482;2023-05-27T07:55:37;6.80;;;6.00;;
7495;SDS011;3789;47.064;15.482;2023-05-27T07:58:10;6.85;;;6.15;;
7495;SDS011;3789;47.064;15.482;2023-05-27T08:00:40;6.07;;;5.47;;
7495;SDS011;3789;47.064;15.482;2023-05-27T08:03:07;7.78;;;6.32;;
7495;SDS011;3789;47.064;15.482;2023-05-27T08:05:47;6.38;;;5.53;;
7495;SDS011;3789;47.064;15.482;2023-05-27T08:08:17;5.57;;;5.07;;
7495;SDS011;3789;47.064;15.482;2023-05-27T08:10:48;5.80;;;5.28;;
7495;SDS011;3789;47.064;15.482;2023-05-27T08:13:18;6.45;;;5.43;;
7495;SDS011;3789;47.064;15.482;2023-05-27T08:15:47;5.90;;;5.30;;
7495;SDS011;3789;47.064;15.482;2023-05-27T08:18:25;5.72;;;4.97;;
7495;SDS011;3789;47.064;15.482;2023-05-27T08:21:07;5.78;;;5.20;;
7495;SDS011;3789;47.064;15.482;2023-05-27T08:23:37;7.00;;;6.10;;
7495;SDS011;3789;47.064;15.482;2023-05-27T08:26:08;6.20;;;5.53;;
7495;SDS011;3789;47.064;15.482;2023-05-27T08:28:46;5.18;;;4.75;;
7495;SDS011;3789;47.064;15.482;2023-05-27T08:31:29;5.45;;;5.00;;
7495;SDS011;3789;47.064;15.482;2023-05-27T08:34:00;6.10;;;5.32;;
7495;SDS011;3789;47.064;15.482;2023-05-27T08:36:29;5.90;;;5.30;;
7495;SDS011;3789;47.064;15.482;2023-05-27T08:39:04;5.43;;;4.93;;
7495;SDS011;3789;47.064;15.482;2023-05-27T08:41:31;5.50;;;5.00;;
7495;SDS011;3789;47.064;15.482;2023-05-27T08:44:03;5.38;;;4.90;;
7495;SDS011;3789;47.064;15.482;2023-05-27T08:46:48;4.90;;;4.40;;
7495;SDS011;3789;47.064;15.482;2023-05-27T08:49:18;5.13;;;4.22;;
7495;SDS011;3789;47.064;15.482;2023-05-27T08:51:49;4.47;;;3.78;;
7495;SDS011;3789;47.064;15.482;2023-05-27T08:54:20;5.18;;;4.22;;
7495;SDS011;3789;47.064;15.482;2023-05-27T08:56:49;4.45;;;4.05;;
7495;SDS011;3789;47.064;15.482;2023-05-27T08:59:23;5.85;;;4.13;;
7495;SDS011;3789;47.064;15.482;2023-05-27T09:01:54;4.55;;;3.88;;
7495;SDS011;3789;47.064;15.482;2023-05-27T09:04:24;4.82;;;4.00;;
7495;SDS011;3789;47.064;15.482;2023-05-27T09:07:03;5.55;;;4.07;;
7495;SDS011;3789;47.064;15.482;2023-05-27T09:09:38;5.80;;;3.80;;
7495;SDS011;3789;47.064;15.482;2023-05-27T09:12:08;6.65;;;3.90;;
7495;SDS011;3789;47.064;15.482;2023-05-27T09:14:38;4.45;;;3.70;;
7495;SDS011;3789;47.064;15.482;2023-05-27T09:17:11;6.15;;;4.38;;
7495;SDS011;3789;47.064;15.482;2023-05-27T09:19:53;4.47;;;3.72;;
7495;SDS011;3789;47.064;15.482;2023-05-27T09:22:31;6.50;;;4.30;;
7495;SDS011;3789;47.064;15.482;2023-05-27T09:25:01;5.50;;;4.13;;
7495;SDS011;3789;47.064;15.482;2023-05-27T09:27:32;6.13;;;4.00;;
7495;SDS011;3789;47.064;15.482;2023-05-27T09:30:09;5.43;;;4.28;;
7495;SDS011;3789;47.064;15.482;2023-05-27T09:32:41;5.10;;;3.50;;
7495;SDS011;3789;47.064;15.482;2023-05-27T09:35:19;4.18;;;3.78;;
7495;SDS011;3789;47.064;15.482;2023-05-27T09:37:49;4.03;;;3.63;;
7495;SDS011;3789;47.064;15.482;2023-05-27T09:40:19;4.75;;;4.10;;
7495;SDS011;3789;47.064;15.482;2023-05-27T09:42:51;4.30;;;3.88;;
7495;SDS011;3789;47.064;15.482;2023-05-27T09:45:21;4.85;;;4.40;;
7495;SDS011;3789;47.064;15.482;2023-05-27T09:48:01;4.65;;;4.25;;
7495;SDS011;3789;47.064;15.482;2023-05-27T09:50:34;6.68;;;4.53;;
7495;SDS011;3789;47.064;15.482;2023-05-27T09:53:05;5.82;;;4.32;;
7495;SDS011;3789;47.064;15.482;2023-05-27T09:55:39;5.07;;;4.28;;
7495;SDS011;3789;47.064;15.482;2023-05-27T09:58:15;4.35;;;3.95;;
7495;SDS011;3789;47.064;15.482;2023-05-27T10:00:47;6.13;;;4.53;;
7495;SDS011;3789;47.064;15.482;2023-05-27T10:03:22;6.18;;;4.80;;
7495;SDS011;3789;47.064;15.482;2023-05-27T10:06:05;5.53;;;4.22;;
7495;SDS011;3789;47.064;15.482;2023-05-27T10:08:43;5.95;;;4.45;;
7495;SDS011;3789;47.064;15.482;2023-05-27T10:11:13;5.28;;;4.40;;
7495;SDS011;3789;47.064;15.482;2023-05-27T10:13:49;5.78;;;4.47;;
7495;SDS011;3789;47.064;15.482;2023-05-27T10:16:23;4.60;;;4.20;;
7495;SDS011;3789;47.064;15.482;2023-05-27T10:19:00;5.70;;;4.00;;
7495;SDS011;3789;47.064;15.482;2023-05-27T10:21:29;4.85;;;4.35;;
7495;SDS011;3789;47.064;15.482;2023-05-27T10:24:02;5.28;;;4.38;;
7495;SDS011;3789;47.064;15.482;2023-05-27T10:26:40;6.07;;;4.38;;
7495;SDS011;3789;47.064;15.482;2023-05-27T10:29:22;5.38;;;4.32;;
7495;SDS011;3789;47.064;15.482;2023-05-27T10:31:53;6.38;;;4.75;;
7495;SDS011;3789;47.064;15.482;2023-05-27T10:34:43;5.22;;;4.25;;
7495;SDS011;3789;47.064;15.482;2023-05-27T10:37:20;5.70;;;4.97;;
7495;SDS011;3789;47.064;15.482;2023-05-27T10:39:54;5.82;;;4.60;;
7495;SDS011;3789;47.064;15.482;2023-05-27T10:42:24;5.13;;;4.50;;
7495;SDS011;3789;47.064;15.482;2023-05-27T10:45:06;7.20;;;4.45;;
7495;SDS011;3789;47.064;15.482;2023-05-27T10:47:45;5.38;;;4.78;;
7495;SDS011;3789;47.064;15.482;2023-05-27T10:50:23;5.10;;;4.60;;
7495;SDS011;3789;47.064;15.482;2023-05-27T10:53:02;7.82;;;4.47;;
7495;SDS011;3789;47.064;15.482;2023-05-27T10:55:35;6.15;;;4.22;;
7495;SDS011;3789;47.064;15.482;2023-05-27T10:58:05;7.05;;;4.25;;
7495;SDS011;3789;47.064;15.482;2023-05-27T11:00:34;6.07;;;4.45;;
7495;SDS011;3789;47.064;15.482;2023-05-27T11:03:04;4.78;;;4.28;;
7495;SDS011;3789;47.064;15.482;2023-05-27T11:06:00;5.85;;;4.35;;
7495;SDS011;3789;47.064;15.482;2023-05-27T11:08:34;4.85;;;4.25;;
7495;SDS011;3789;47.064;15.482;2023-05-27T11:11:11;5.93;;;4.13;;
7495;SDS011;3789;47.064;15.482;2023-05-27T11:13:42;4.72;;;4.18;;
7495;SDS011;3789;47.064;15.482;2023-05-27T11:16:17;5.43;;;4.07;;
7495;SDS011;3789;47.064;15.482;2023-05-27T11:18:47;5.60;;;4.10;;
7495;SDS011;3789;47.064;15.482;2023-05-27T11:21:24;5.55;;;4.53;;
7495;SDS011;3789;47.064;15.482;2023-05-27T11:23:54;5.95;;;4.45;;
7495;SDS011;3789;47.064;15.482;2023-05-27T11:26:26;5.28;;;4.30;;
7495;SDS011;3789;47.064;15.482;2023-05-27T11:28:57;4.78;;;4.28;;
7495;SDS011;3789;47.064;15.482;2023-05-27T11:31:40;6.18;;;4.40;;
7495;SDS011;3789;47.064;15.482;2023-05-27T11:34:15;5.43;;;4.40;;
7495;SDS011;3789;47.064;15.482;2023-05-27T11:36:51;4.68;;;4.25;;
7495;SDS011;3789;47.064;15.482;2023-05-27T11:39:22;5.30;;;4.32;;
7495;SDS011;3789;47.064;15.482;2023-05-27T11:41:51;5.72;;;4.38;;
7495;SDS011;3789;47.064;15.482;2023-05-27T11:44:24;5.88;;;4.72;;
7495;SDS011;3789;47.064;15.482;2023-05-27T11:46:58;5.32;;;4.50;;
7495;SDS011;3789;47.064;15.482;2023-05-27T11:49:31;4.80;;;4.15;;
7495;SDS011;3789;47.064;15.482;2023-05-27T11:52:00;6.10;;;4.90;;
7495;SDS011;3789;47.064;15.482;2023-05-27T11:54:37;5.53;;;4.50;;
7495;SDS011;3789;47.064;15.482;2023-05-27T11:57:12;5.00;;;4.50;;
7495;SDS011;3789;47.064;15.482;2023-05-27T11:59:44;5.15;;;4.50;;
7495;SDS011;3789;47.064;15.482;2023-05-27T12:02:21;6.85;;;4.88;;
7495;SDS011;3789;47.064;15.482;2023-05-27T12:04:53;4.90;;;4.30;;
7495;SDS011;3789;47.064;15.482;2023-05-27T12:07:22;5.70;;;4.57;;
7495;SDS011;3789;47.064;15.482;2023-05-27T12:09:52;4.93;;;4.20;;
7495;SDS011;3789;47.064;15.482;2023-05-27T12:12:21;5.25;;;4.75;;
7495;SDS011;3789;47.064;15.482;2023-05-27T12:15:00;6.53;;;4.50;;
7495;SDS011;3789;47.064;15.482;2023-05-27T12:17:34;5.85;;;4.65;;
7495;SDS011;3789;47.064;15.482;2023-05-27T12:20:04;6.05;;;4.93;;
7495;SDS011;3789;47.064;15.482;2023-05-27T12:22:37;6.45;;;4.65;;
7495;SDS011;3789;47.064;15.482;2023-05-27T12:25:08;6.38;;;4.63;;
7495;SDS011;3789;47.064;15.482;2023-05-27T12:27:39;6.82;;;4.95;;
7495;SDS011;3789;47.064;15.482;2023-05-27T12:30:10;6.93;;;4.90;;
7495;SDS011;3789;47.064;15.482;2023-05-27T12:32:45;6.25;;;4.50;;
7495;SDS011;3789;47.064;15.482;2023-05-27T12:35:17;5.38;;;4.43;;
7495;SDS011;3789;47.064;15.482;2023-05-27T12:37:56;6.82;;;4.85;;
7495;SDS011;3789;47.064;15.482;2023-05-27T12:40:26;5.60;;;5.05;;
7495;SDS011;3789;47.064;15.482;2023-05-27T12:43:05;5.63;;;4.65;;
7495;SDS011;3789;47.064;15.482;2023-05-27T12:45:35;5.30;;;4.80;;
7495;SDS011;3789;47.064;15.482;2023-05-27T12:48:05;4.93;;;4.43;;
7495;SDS011;3789;47.064;15.482;2023-05-27T12:50:39;4.90;;;4.50;;
7495;SDS011;3789;47.064;15.482;2023-05-27T12:53:09;6.38;;;4.53;;
7495;SDS011;3789;47.064;15.482;2023-05-27T12:55:38;5.55;;;4.57;;
7495;SDS011;3789;47.064;15.482;2023-05-27T12:58:07;6.68;;;5.10;;
7495;SDS011;3789;47.064;15.482;2023-05-27T13:00:36;6.00;;;5.13;;
7495;SDS011;3789;47.064;15.482;2023-05-27T13:03:14;6.28;;;4.60;;
7495;SDS011;3789;47.064;15.482;2023-05-27T13:05:44;5.85;;;5.25;;
7495;SDS011;3789;47.064;15.482;2023-05-27T13:08:22;5.47;;;4.50;;
7495;SDS011;3789;47.064;15.482;2023-05-27T13:10:50;6.10;;;4.32;;
7495;SDS011;3789;47.064;15.482;2023-05-27T13:13:24;5.75;;;4.70;;
7495;SDS011;3789;47.064;15.482;2023-05-27T13:15:52;5.63;;;4.97;;
7495;SDS011;3789;47.064;15.482;2023-05-27T13:18:23;5.70;;;4.80;;
7495;SDS011;3789;47.064;15.482;2023-05-27T13:21:04;5.85;;;5.10;;
7495;SDS011;3789;47.064;15.482;2023-05-27T13:23:34;5.47;;;4.68;;
7495;SDS011;3789;47.064;15.482;2023-05-27T13:26:04;6.50;;;5.13;;
7495;SDS011;3789;47.064;15.482;2023-05-27T13:28:36;6.38;;;5.18;;
7495;SDS011;3789;47.064;15.482;2023-05-27T13:31:07;5.93;;;4.88;;
7495;SDS011;3789;47.064;15.482;2023-05-27T13:33:36;6.30;;;5.00;;
7495;SDS011;3789;47.064;15.482;2023-05-27T13:36:05;6.05;;;5.03;;
7495;SDS011;3789;47.064;15.482;2023-05-27T13:38:35;6.25;;;4.90;;
7495;SDS011;3789;47.064;15.482;2023-05-27T13:41:12;7.53;;;4.93;;
7495;SDS011;3789;47.064;15.482;2023-05-27T13:43:41;5.68;;;4.90;;
7495;SDS011;3789;47.064;15.482;2023-05-27T13:46:12;6.18;;;5.15;;
7495;SDS011;3789;47.064;15.482;2023-05-27T13:48:44;6.55;;;5.45;;
7495;SDS011;3789;47.064;15.482;2023-05-27T13:51:24;4.95;;;4.55;;
7495;SDS011;3789;47.064;15.482;2023-05-27T13:53:56;6.03;;;5.03;;
7495;SDS011;3789;47.064;15.482;2023-05-27T13:56:27;6.90;;;5.20;;
7495;SDS011;3789;47.064;15.482;2023-05-27T13:58:56;6.70;;;5.50;;
7495;SDS011;3789;47.064;15.482;2023-05-27T14:01:25;5.72;;;5.00;;
7495;SDS011;3789;47.064;15.482;2023-05-27T14:03:56;5.13;;;4.63;;
7495;SDS011;3789;47.064;15.482;2023-05-27T14:06:26;5.65;;;4.90;;
7495;SDS011;3789;47.064;15.482;2023-05-27T14:08:55;5.68;;;4.63;;
7495;SDS011;3789;47.064;15.482;2023-05-27T14:11:32;5.30;;;4.80;;
7495;SDS011;3789;47.064;15.482;2023-05-27T14:14:02;5.65;;;5.07;;
7495;SDS011;3789;47.064;15.482;2023-05-27T14:16:31;6.57;;;4.82;;
7495;SDS011;3789;47.064;15.482;2023-05-27T14:19:00;5.53;;;5.10;;
7495;SDS011;3789;47.064;15.482;2023-05-27T14:21:35;5.43;;;4.90;;
7495;SDS011;3789;47.064;15.482;2023-05-27T14:24:07;5.40;;;4.80;;
7495;SDS011;3789;47.064;15.482;2023-05-27T14:26:38;5.97;;;5.20;;
7495;SDS011;3789;47.064;15.482;2023-05-27T14:29:15;6.15;;;5.22;;
7495;SDS011;3789;47.064;15.482;2023-05-27T14:31:47;5.65;;;5.05;;
7495;SDS011;3789;47.064;15.482;2023-05-27T14:34:21;6.03;;;5.43;;
7495;SDS011;3789;47.064;15.482;2023-05-27T14:36:58;6.03;;;5.07;;
7495;SDS011;3789;47.064;15.482;2023-05-27T14:39:30;9.85;;;5.07;;
7495;SDS011;3789;47.064;15.482;2023-05-27T14:42:07;6.93;;;5.32;;
7495;SDS011;3789;47.064;15.482;2023-05-27T14:44:38;5.75;;;5.15;;
7495;SDS011;3789;47.064;15.482;2023-05-27T14:47:13;6.45;;;5.20;;
7495;SDS011;3789;47.064;15.482;2023-05-27T14:49:44;6.10;;;5.10;;
7495;SDS011;3789;47.064;15.482;2023-05-27T14:52:15;7.10;;;5.28;;
7495;SDS011;3789;47.064;15.482;2023-05-27T14:54:46;5.97;;;4.90;;
7495;SDS011;3789;47.064;15.482;2023-05-27T14:57:16;6.57;;;5.18;;
7495;SDS011;3789;47.064;15.482;2023-05-27T14:59:58;7.03;;;5.65;;
7495;SDS011;3789;47.064;15.482;2023-05-27T15:02:29;6.07;;;4.50;;
7495;SDS011;3789;47.064;15.482;2023-05-27T15:04:57;5.93;;;5.30;;
7495;SDS011;3789;47.064;15.482;2023-05-27T15:07:28;6.75;;;5.25;;
7495;SDS011;3789;47.064;15.482;2023-05-27T15:09:56;6.22;;;5.30;;
7495;SDS011;3789;47.064;15.482;2023-05-27T15:12:27;5.90;;;5.13;;
7495;SDS011;3789;47.064;15.482;2023-05-27T15:15:11;7.63;;;4.88;;
7495;SDS011;3789;47.064;15.482;2023-05-27T15:17:54;5.57;;;4.70;;
7495;SDS011;3789;47.064;15.482;2023-05-27T15:20:23;5.15;;;4.65;;
7495;SDS011;3789;47.064;15.482;2023-05-27T15:22:54;5.80;;;5.20;;
7495;SDS011;3789;47.064;15.482;2023-05-27T15:25:24;6.90;;;5.13;;
7495;SDS011;3789;47.064;15.482;2023-05-27T15:27:53;6.43;;;5.30;;
7495;SDS011;3789;47.064;15.482;2023-05-27T15:30:23;5.95;;;5.30;;
7495;SDS011;3789;47.064;15.482;2023-05-27T15:32:54;6.57;;;4.72;;
7495;SDS011;3789;47.064;15.482;2023-05-27T15:35:22;6.53;;;5.38;;
7495;SDS011;3789;47.064;15.482;2023-05-27T15:37:52;7.20;;;5.15;;
7495;SDS011;3789;47.064;15.482;2023-05-27T15:40:22;5.60;;;5.10;;
7495;SDS011;3789;47.064;15.482;2023-05-27T15:42:52;5.60;;;4.93;;
7495;SDS011;3789;47.064;15.482;2023-05-27T15:45:30;5.60;;;4.68;;